sensor_id;sensor_type;location;lat;lon;timestamp;P1;durP1;ratioP1;P2;durP2;ratioP2
7263;SDS011;3673;52.480;13.348;2022-12-15T00:01:22;78.68;;;35.53;;
7263;SDS011;3673;52.480;13.348;2022-12-15T00:04:06;72.82;;;33.38;;
7263;SDS011;3673;52.480;13.348;2022-12-15T00:06:53;58.83;;;30.75;;
7263;SDS011;3673;52.480;13.348;2022-12-15T00:09:37;59.67;;;26.00;;
7263;SDS011;3673;52.480;13.348;2022-12-15T00:12:22;69.72;;;31.73;;
7263;SDS011;3673;52.480;13.348;2022-12-15T00:15:07;68.82;;;31.73;;
7263;SDS011;3673;52.480;13.348;2022-12-15T00:17:51;69.65;;;33.90;;
7263;SDS011;3673;52.480;13.348;2022-12-15T00:20:36;74.72;;;33.05;;
7263;SDS011;3673;52.480;13.348;2022-12-15T00:23:22;77.45;;;36.25;;
7263;SDS011;3673;52.480;13.348;2022-12-15T00:26:07;66.00;;;32.37;;
7263;SDS011;3673;52.480;13.348;2022-12-15T00:28:51;75.57;;;34.28;;
7263;SDS011;3673;52.480;13.348;2022-12-15T00:31:36;72.88;;;32.75;;
7263;SDS011;3673;52.480;13.348;2022-12-15T00:34:20;72.65;;;33.40;;
7263;SDS011;3673;52.480;13.348;2022-12-15T00:37:05;72.85;;;33.70;;
7263;SDS011;3673;52.480;13.348;2022-12-15T00:39:51;64.10;;;33.40;;
7263;SDS011;3673;52.480;13.348;2022-12-15T00:42:23;71.97;;;33.88;;
7263;SDS011;3673;52.480;13.348;2022-12-15T00:44:52;72.85;;;34.70;;
7263;SDS011;3673;52.480;13.348;2022-12-15T00:47:19;72.15;;;33.05;;
7263;SDS011;3673;52.480;13.348;2022-12-15T00:52:29;70.15;;;31.60;;
7263;SDS011;3673;52.480;13.348;2022-12-15T00:55:16;75.13;;;34.13;;
7263;SDS011;3673;52.480;13.348;2022-12-15T00:58:00;67.30;;;34.00;;
7263;SDS011;3673;52.480;13.348;2022-12-15T01:00:45;69.13;;;33.25;;
7263;SDS011;3673;52.480;13.348;2022-12-15T01:03:30;75.80;;;35.17;;
7263;SDS011;3673;52.480;13.348;2022-12-15T01:06:15;71.72;;;34.85;;
7263;SDS011;3673;52.480;13.348;2022-12-15T01:09:03;70.85;;;35.40;;
7263;SDS011;3673;52.480;13.348;2022-12-15T01:11:51;68.85;;;32.95;;
7263;SDS011;3673;52.480;13.348;2022-12-15T01:14:36;43.67;;;23.30;;
7263;SDS011;3673;52.480;13.348;2022-12-15T01:17:21;68.13;;;31.67;;
7263;SDS011;3673;52.480;13.348;2022-12-15T01:20:06;65.13;;;32.55;;
7263;SDS011;3673;52.480;13.348;2022-12-15T01:22:43;66.80;;;33.33;;
7263;SDS011;3673;52.480;13.348;2022-12-15T01:25:10;62.67;;;31.27;;
7263;SDS011;3673;52.480;13.348;2022-12-15T01:27:40;67.43;;;31.90;;
7263;SDS011;3673;52.480;13.348;2022-12-15T01:30:08;72.07;;;35.42;;
7263;SDS011;3673;52.480;13.348;2022-12-15T01:32:37;71.90;;;33.95;;
7263;SDS011;3673;52.480;13.348;2022-12-15T01:35:05;68.45;;;33.15;;
7263;SDS011;3673;52.480;13.348;2022-12-15T01:37:33;70.15;;;34.40;;
7263;SDS011;3673;52.480;13.348;2022-12-15T01:40:01;77.60;;;34.53;;
7263;SDS011;3673;52.480;13.348;2022-12-15T01:42:47;74.07;;;33.42;;
7263;SDS011;3673;52.480;13.348;2022-12-15T01:45:42;72.75;;;32.80;;
7263;SDS011;3673;52.480;13.348;2022-12-15T01:48:26;64.25;;;31.30;;
7263;SDS011;3673;52.480;13.348;2022-12-15T01:51:00;70.30;;;32.50;;
7263;SDS011;3673;52.480;13.348;2022-12-15T01:53:41;71.47;;;33.40;;
7263;SDS011;3673;52.480;13.348;2022-12-15T01:56:13;72.80;;;34.88;;
7263;SDS011;3673;52.480;13.348;2022-12-15T01:58:42;74.43;;;33.22;;
7263;SDS011;3673;52.480;13.348;2022-12-15T02:01:13;64.55;;;33.33;;
7263;SDS011;3673;52.480;13.348;2022-12-15T02:03:40;67.78;;;32.97;;
7263;SDS011;3673;52.480;13.348;2022-12-15T02:06:09;67.82;;;34.92;;
7263;SDS011;3673;52.480;13.348;2022-12-15T02:08:36;68.22;;;34.85;;
7263;SDS011;3673;52.480;13.348;2022-12-15T02:11:13;68.97;;;33.72;;
7263;SDS011;3673;52.480;13.348;2022-12-15T02:14:11;74.97;;;33.50;;
7263;SDS011;3673;52.480;13.348;2022-12-15T02:16:56;63.55;;;31.17;;
7263;SDS011;3673;52.480;13.348;2022-12-15T02:19:41;67.20;;;33.20;;
7263;SDS011;3673;52.480;13.348;2022-12-15T02:22:59;76.03;;;33.08;;
7263;SDS011;3673;52.480;13.348;2022-12-15T02:28:45;70.53;;;28.90;;
7263;SDS011;3673;52.480;13.348;2022-12-15T02:31:25;66.07;;;31.63;;
7263;SDS011;3673;52.480;13.348;2022-12-15T02:34:18;66.78;;;32.13;;
7263;SDS011;3673;52.480;13.348;2022-12-15T02:36:53;64.43;;;31.77;;
7263;SDS011;3673;52.480;13.348;2022-12-15T02:39:24;67.95;;;31.55;;
7263;SDS011;3673;52.480;13.348;2022-12-15T02:41:51;63.03;;;31.65;;
7263;SDS011;3673;52.480;13.348;2022-12-15T02:44:19;66.05;;;31.58;;
7263;SDS011;3673;52.480;13.348;2022-12-15T02:49:46;62.70;;;30.13;;
7263;SDS011;3673;52.480;13.348;2022-12-15T02:52:36;60.92;;;30.98;;
7263;SDS011;3673;52.480;13.348;2022-12-15T02:55:14;63.85;;;31.08;;
7263;SDS011;3673;52.480;13.348;2022-12-15T02:57:51;62.63;;;28.67;;
7263;SDS011;3673;52.480;13.348;2022-12-15T03:00:25;63.67;;;29.92;;
7263;SDS011;3673;52.480;13.348;2022-12-15T03:02:56;62.80;;;28.38;;
7263;SDS011;3673;52.480;13.348;2022-12-15T03:05:23;64.03;;;30.15;;
7263;SDS011;3673;52.480;13.348;2022-12-15T03:07:51;58.42;;;29.17;;
7263;SDS011;3673;52.480;13.348;2022-12-15T03:10:19;53.67;;;28.75;;
7263;SDS011;3673;52.480;13.348;2022-12-15T03:12:49;53.47;;;26.95;;
7263;SDS011;3673;52.480;13.348;2022-12-15T03:15:16;59.17;;;28.02;;
7263;SDS011;3673;52.480;13.348;2022-12-15T03:17:44;62.50;;;27.85;;
7263;SDS011;3673;52.480;13.348;2022-12-15T03:20:12;54.97;;;27.98;;
7263;SDS011;3673;52.480;13.348;2022-12-15T03:22:39;55.42;;;26.70;;
7263;SDS011;3673;52.480;13.348;2022-12-15T03:25:07;53.05;;;25.33;;
7263;SDS011;3673;52.480;13.348;2022-12-15T03:27:34;55.38;;;26.63;;
7263;SDS011;3673;52.480;13.348;2022-12-15T03:30:02;55.50;;;27.63;;
7263;SDS011;3673;52.480;13.348;2022-12-15T03:32:30;60.80;;;28.05;;
7263;SDS011;3673;52.480;13.348;2022-12-15T03:34:57;51.35;;;28.23;;
7263;SDS011;3673;52.480;13.348;2022-12-15T03:37:26;64.25;;;30.38;;
7263;SDS011;3673;52.480;13.348;2022-12-15T03:39:53;56.47;;;29.38;;
7263;SDS011;3673;52.480;13.348;2022-12-15T03:42:20;58.63;;;29.48;;
7263;SDS011;3673;52.480;13.348;2022-12-15T03:47:34;53.15;;;25.35;;
7263;SDS011;3673;52.480;13.348;2022-12-15T03:50:06;59.80;;;30.00;;
7263;SDS011;3673;52.480;13.348;2022-12-15T03:52:35;60.00;;;29.70;;
7263;SDS011;3673;52.480;13.348;2022-12-15T03:55:03;57.65;;;28.58;;
7263;SDS011;3673;52.480;13.348;2022-12-15T03:57:31;53.65;;;27.25;;
7263;SDS011;3673;52.480;13.348;2022-12-15T03:59:58;55.72;;;27.70;;
7263;SDS011;3673;52.480;13.348;2022-12-15T04:02:25;54.35;;;29.67;;
7263;SDS011;3673;52.480;13.348;2022-12-15T04:04:52;55.75;;;27.33;;
7263;SDS011;3673;52.480;13.348;2022-12-15T04:07:19;68.38;;;29.60;;
7263;SDS011;3673;52.480;13.348;2022-12-15T04:09:47;58.97;;;27.85;;
7263;SDS011;3673;52.480;13.348;2022-12-15T04:12:14;60.63;;;29.17;;
7263;SDS011;3673;52.480;13.348;2022-12-15T04:14:41;56.85;;;27.90;;
7263;SDS011;3673;52.480;13.348;2022-12-15T04:17:08;53.88;;;26.70;;
7263;SDS011;3673;52.480;13.348;2022-12-15T04:19:35;61.78;;;29.92;;
7263;SDS011;3673;52.480;13.348;2022-12-15T04:22:20;57.10;;;28.23;;
7263;SDS011;3673;52.480;13.348;2022-12-15T04:24:49;57.03;;;28.45;;
7263;SDS011;3673;52.480;13.348;2022-12-15T04:27:33;54.85;;;25.58;;
7263;SDS011;3673;52.480;13.348;2022-12-15T04:30:18;52.47;;;27.67;;
7263;SDS011;3673;52.480;13.348;2022-12-15T04:33:03;60.67;;;28.05;;
7263;SDS011;3673;52.480;13.348;2022-12-15T04:35:49;56.83;;;27.23;;
7263;SDS011;3673;52.480;13.348;2022-12-15T04:38:34;51.17;;;25.35;;
7263;SDS011;3673;52.480;13.348;2022-12-15T04:41:20;57.95;;;27.75;;
7263;SDS011;3673;52.480;13.348;2022-12-15T04:44:07;63.78;;;27.30;;
7263;SDS011;3673;52.480;13.348;2022-12-15T04:46:52;56.17;;;26.43;;
7263;SDS011;3673;52.480;13.348;2022-12-15T04:49:37;57.92;;;25.55;;
7263;SDS011;3673;52.480;13.348;2022-12-15T04:52:22;59.25;;;26.65;;
7263;SDS011;3673;52.480;13.348;2022-12-15T04:55:07;56.90;;;26.10;;
7263;SDS011;3673;52.480;13.348;2022-12-15T04:57:53;46.92;;;23.42;;
7263;SDS011;3673;52.480;13.348;2022-12-15T05:00:37;49.97;;;24.03;;
7263;SDS011;3673;52.480;13.348;2022-12-15T05:03:22;51.42;;;22.23;;
7263;SDS011;3673;52.480;13.348;2022-12-15T05:06:07;44.30;;;21.80;;
7263;SDS011;3673;52.480;13.348;2022-12-15T05:08:51;48.75;;;23.65;;
7263;SDS011;3673;52.480;13.348;2022-12-15T05:11:36;57.83;;;24.88;;
7263;SDS011;3673;52.480;13.348;2022-12-15T05:14:22;48.88;;;23.90;;
7263;SDS011;3673;52.480;13.348;2022-12-15T05:17:07;61.83;;;25.87;;
7263;SDS011;3673;52.480;13.348;2022-12-15T05:19:51;61.78;;;25.95;;
7263;SDS011;3673;52.480;13.348;2022-12-15T05:22:36;63.17;;;24.75;;
7263;SDS011;3673;52.480;13.348;2022-12-15T05:25:21;53.92;;;22.85;;
7263;SDS011;3673;52.480;13.348;2022-12-15T05:28:05;62.03;;;25.02;;
7263;SDS011;3673;52.480;13.348;2022-12-15T05:30:51;58.67;;;24.17;;
7263;SDS011;3673;52.480;13.348;2022-12-15T05:33:36;50.47;;;23.25;;
7263;SDS011;3673;52.480;13.348;2022-12-15T05:36:03;55.33;;;23.38;;
7263;SDS011;3673;52.480;13.348;2022-12-15T05:38:31;53.00;;;22.48;;
7263;SDS011;3673;52.480;13.348;2022-12-15T05:40:58;61.50;;;24.52;;
7263;SDS011;3673;52.480;13.348;2022-12-15T05:43:25;55.22;;;24.38;;
7263;SDS011;3673;52.480;13.348;2022-12-15T05:45:54;57.42;;;23.90;;
7263;SDS011;3673;52.480;13.348;2022-12-15T05:48:21;73.53;;;26.00;;
7263;SDS011;3673;52.480;13.348;2022-12-15T05:50:48;56.30;;;25.58;;
7263;SDS011;3673;52.480;13.348;2022-12-15T05:53:15;55.00;;;23.05;;
7263;SDS011;3673;52.480;13.348;2022-12-15T05:55:42;57.72;;;24.83;;
7263;SDS011;3673;52.480;13.348;2022-12-15T05:58:09;59.40;;;24.33;;
7263;SDS011;3673;52.480;13.348;2022-12-15T06:00:35;68.22;;;26.52;;
7263;SDS011;3673;52.480;13.348;2022-12-15T06:03:04;68.53;;;25.98;;
7263;SDS011;3673;52.480;13.348;2022-12-15T06:05:31;66.00;;;26.45;;
7263;SDS011;3673;52.480;13.348;2022-12-15T06:07:58;59.40;;;26.08;;
7263;SDS011;3673;52.480;13.348;2022-12-15T06:10:25;57.28;;;24.67;;
7263;SDS011;3673;52.480;13.348;2022-12-15T06:12:52;60.35;;;26.33;;
7263;SDS011;3673;52.480;13.348;2022-12-15T06:15:19;53.63;;;24.88;;
7263;SDS011;3673;52.480;13.348;2022-12-15T06:17:46;59.67;;;24.70;;
7263;SDS011;3673;52.480;13.348;2022-12-15T06:20:14;60.70;;;26.90;;
7263;SDS011;3673;52.480;13.348;2022-12-15T06:22:41;55.05;;;24.20;;
7263;SDS011;3673;52.480;13.348;2022-12-15T06:25:08;61.95;;;25.75;;
7263;SDS011;3673;52.480;13.348;2022-12-15T06:27:35;48.63;;;24.27;;
7263;SDS011;3673;52.480;13.348;2022-12-15T06:30:02;60.45;;;23.10;;
7263;SDS011;3673;52.480;13.348;2022-12-15T06:32:32;56.35;;;25.33;;
7263;SDS011;3673;52.480;13.348;2022-12-15T06:35:00;58.08;;;25.15;;
7263;SDS011;3673;52.480;13.348;2022-12-15T06:37:28;54.00;;;24.65;;
7263;SDS011;3673;52.480;13.348;2022-12-15T06:39:55;47.88;;;22.95;;
7263;SDS011;3673;52.480;13.348;2022-12-15T06:42:22;47.42;;;22.60;;
7263;SDS011;3673;52.480;13.348;2022-12-15T06:44:48;43.40;;;21.42;;
7263;SDS011;3673;52.480;13.348;2022-12-15T06:47:15;44.70;;;21.55;;
7263;SDS011;3673;52.480;13.348;2022-12-15T06:49:42;49.42;;;21.77;;
7263;SDS011;3673;52.480;13.348;2022-12-15T06:52:09;48.70;;;22.63;;
7263;SDS011;3673;52.480;13.348;2022-12-15T06:54:37;48.92;;;24.17;;
7263;SDS011;3673;52.480;13.348;2022-12-15T06:57:04;45.92;;;22.67;;
7263;SDS011;3673;52.480;13.348;2022-12-15T06:59:31;53.60;;;22.85;;
7263;SDS011;3673;52.480;13.348;2022-12-15T07:01:58;48.63;;;22.38;;
7263;SDS011;3673;52.480;13.348;2022-12-15T07:04:25;49.13;;;23.25;;
7263;SDS011;3673;52.480;13.348;2022-12-15T07:06:52;45.10;;;21.60;;
7263;SDS011;3673;52.480;13.348;2022-12-15T07:09:20;44.90;;;21.50;;
7263;SDS011;3673;52.480;13.348;2022-12-15T07:11:51;48.30;;;22.30;;
7263;SDS011;3673;52.480;13.348;2022-12-15T07:14:18;49.95;;;21.65;;
7263;SDS011;3673;52.480;13.348;2022-12-15T07:16:45;42.90;;;20.88;;
7263;SDS011;3673;52.480;13.348;2022-12-15T07:19:12;54.08;;;22.80;;
7263;SDS011;3673;52.480;13.348;2022-12-15T07:21:39;50.10;;;25.58;;
7263;SDS011;3673;52.480;13.348;2022-12-15T07:24:08;63.63;;;30.77;;
7263;SDS011;3673;52.480;13.348;2022-12-15T07:26:36;55.35;;;24.63;;
7263;SDS011;3673;52.480;13.348;2022-12-15T07:29:05;58.40;;;25.92;;
7263;SDS011;3673;52.480;13.348;2022-12-15T07:31:32;59.45;;;26.67;;
7263;SDS011;3673;52.480;13.348;2022-12-15T07:33:59;54.47;;;25.08;;
7263;SDS011;3673;52.480;13.348;2022-12-15T07:36:25;50.90;;;24.98;;
7263;SDS011;3673;52.480;13.348;2022-12-15T07:38:55;61.97;;;25.40;;
7263;SDS011;3673;52.480;13.348;2022-12-15T07:41:25;50.13;;;23.52;;
7263;SDS011;3673;52.480;13.348;2022-12-15T07:43:54;46.70;;;21.88;;
7263;SDS011;3673;52.480;13.348;2022-12-15T07:46:22;56.13;;;24.52;;
7263;SDS011;3673;52.480;13.348;2022-12-15T07:48:51;57.05;;;26.10;;
7263;SDS011;3673;52.480;13.348;2022-12-15T07:51:18;52.95;;;23.85;;
7263;SDS011;3673;52.480;13.348;2022-12-15T07:53:45;51.65;;;23.08;;
7263;SDS011;3673;52.480;13.348;2022-12-15T07:56:13;44.45;;;22.10;;
7263;SDS011;3673;52.480;13.348;2022-12-15T07:58:40;50.30;;;22.48;;
7263;SDS011;3673;52.480;13.348;2022-12-15T08:01:09;56.13;;;23.48;;
7263;SDS011;3673;52.480;13.348;2022-12-15T08:03:39;54.35;;;24.83;;
7263;SDS011;3673;52.480;13.348;2022-12-15T08:06:08;43.45;;;22.27;;
7263;SDS011;3673;52.480;13.348;2022-12-15T08:08:37;48.30;;;22.35;;
7263;SDS011;3673;52.480;13.348;2022-12-15T08:11:05;46.80;;;21.67;;
7263;SDS011;3673;52.480;13.348;2022-12-15T08:13:35;42.63;;;21.80;;
7263;SDS011;3673;52.480;13.348;2022-12-15T08:16:03;41.17;;;20.80;;
7263;SDS011;3673;52.480;13.348;2022-12-15T08:18:30;45.15;;;22.23;;
7263;SDS011;3673;52.480;13.348;2022-12-15T08:21:02;47.70;;;23.05;;
7263;SDS011;3673;52.480;13.348;2022-12-15T08:23:30;51.55;;;21.80;;
7263;SDS011;3673;52.480;13.348;2022-12-15T08:26:00;47.55;;;21.50;;
7263;SDS011;3673;52.480;13.348;2022-12-15T08:28:29;54.42;;;22.98;;
7263;SDS011;3673;52.480;13.348;2022-12-15T08:31:00;50.17;;;22.67;;
7263;SDS011;3673;52.480;13.348;2022-12-15T08:33:29;45.40;;;23.35;;
7263;SDS011;3673;52.480;13.348;2022-12-15T08:35:57;45.03;;;21.63;;
7263;SDS011;3673;52.480;13.348;2022-12-15T08:38:28;50.85;;;23.30;;
7263;SDS011;3673;52.480;13.348;2022-12-15T08:40:57;45.88;;;21.13;;
7263;SDS011;3673;52.480;13.348;2022-12-15T08:43:31;49.63;;;23.67;;
7263;SDS011;3673;52.480;13.348;2022-12-15T08:45:58;50.17;;;22.80;;
7263;SDS011;3673;52.480;13.348;2022-12-15T08:48:26;53.15;;;23.55;;
7263;SDS011;3673;52.480;13.348;2022-12-15T08:50:53;59.42;;;28.73;;
7263;SDS011;3673;52.480;13.348;2022-12-15T08:53:20;55.50;;;24.90;;
7263;SDS011;3673;52.480;13.348;2022-12-15T08:55:49;80.68;;;36.25;;
7263;SDS011;3673;52.480;13.348;2022-12-15T08:58:15;78.90;;;28.73;;
7263;SDS011;3673;52.480;13.348;2022-12-15T09:00:43;58.92;;;26.38;;
7263;SDS011;3673;52.480;13.348;2022-12-15T09:03:11;54.25;;;25.38;;
7263;SDS011;3673;52.480;13.348;2022-12-15T09:05:38;45.60;;;25.08;;
7263;SDS011;3673;52.480;13.348;2022-12-15T09:08:05;49.47;;;25.02;;
7263;SDS011;3673;52.480;13.348;2022-12-15T09:10:32;54.47;;;24.02;;
7263;SDS011;3673;52.480;13.348;2022-12-15T09:13:00;56.13;;;26.55;;
7263;SDS011;3673;52.480;13.348;2022-12-15T09:15:27;56.45;;;25.60;;
7263;SDS011;3673;52.480;13.348;2022-12-15T09:17:54;47.10;;;22.83;;
7263;SDS011;3673;52.480;13.348;2022-12-15T09:20:22;45.72;;;22.67;;
7263;SDS011;3673;52.480;13.348;2022-12-15T09:22:49;51.08;;;23.15;;
7263;SDS011;3673;52.480;13.348;2022-12-15T09:25:16;51.47;;;24.33;;
7263;SDS011;3673;52.480;13.348;2022-12-15T09:27:44;57.90;;;26.23;;
7263;SDS011;3673;52.480;13.348;2022-12-15T09:30:12;54.38;;;24.08;;
7263;SDS011;3673;52.480;13.348;2022-12-15T09:32:40;52.00;;;23.60;;
7263;SDS011;3673;52.480;13.348;2022-12-15T09:35:07;50.47;;;23.98;;
7263;SDS011;3673;52.480;13.348;2022-12-15T09:37:34;50.75;;;23.95;;
7263;SDS011;3673;52.480;13.348;2022-12-15T09:40:02;54.03;;;24.08;;
7263;SDS011;3673;52.480;13.348;2022-12-15T09:42:30;48.08;;;24.25;;
7263;SDS011;3673;52.480;13.348;2022-12-15T09:45:00;56.92;;;25.65;;
7263;SDS011;3673;52.480;13.348;2022-12-15T09:47:35;52.13;;;24.95;;
7263;SDS011;3673;52.480;13.348;2022-12-15T09:50:12;51.42;;;24.30;;
7263;SDS011;3673;52.480;13.348;2022-12-15T09:52:43;55.63;;;23.20;;
7263;SDS011;3673;52.480;13.348;2022-12-15T09:55:16;57.30;;;26.08;;
7263;SDS011;3673;52.480;13.348;2022-12-15T09:57:48;49.17;;;22.45;;
7263;SDS011;3673;52.480;13.348;2022-12-15T10:00:20;87.38;;;36.60;;
7263;SDS011;3673;52.480;13.348;2022-12-15T10:03:01;134.25;;;51.72;;
7263;SDS011;3673;52.480;13.348;2022-12-15T10:06:06;61.90;;;27.60;;
7263;SDS011;3673;52.480;13.348;2022-12-15T10:08:36;97.78;;;37.97;;
7263;SDS011;3673;52.480;13.348;2022-12-15T10:11:19;93.57;;;36.70;;
7263;SDS011;3673;52.480;13.348;2022-12-15T10:13:57;64.30;;;28.55;;
7263;SDS011;3673;52.480;13.348;2022-12-15T10:16:32;54.05;;;25.40;;
7263;SDS011;3673;52.480;13.348;2022-12-15T10:19:11;58.00;;;26.70;;
7263;SDS011;3673;52.480;13.348;2022-12-15T10:21:42;56.83;;;27.42;;
7263;SDS011;3673;52.480;13.348;2022-12-15T10:24:14;52.53;;;28.33;;
7263;SDS011;3673;52.480;13.348;2022-12-15T10:26:53;54.58;;;25.83;;
7263;SDS011;3673;52.480;13.348;2022-12-15T10:29:32;56.50;;;26.60;;
7263;SDS011;3673;52.480;13.348;2022-12-15T10:32:09;55.72;;;26.73;;
7263;SDS011;3673;52.480;13.348;2022-12-15T10:34:45;54.58;;;28.60;;
7263;SDS011;3673;52.480;13.348;2022-12-15T10:37:12;52.20;;;25.73;;
7263;SDS011;3673;52.480;13.348;2022-12-15T10:39:43;52.95;;;26.20;;
7263;SDS011;3673;52.480;13.348;2022-12-15T10:42:14;48.75;;;25.38;;
7263;SDS011;3673;52.480;13.348;2022-12-15T10:44:45;46.97;;;24.63;;
7263;SDS011;3673;52.480;13.348;2022-12-15T10:47:18;52.22;;;25.45;;
7263;SDS011;3673;52.480;13.348;2022-12-15T10:49:51;49.30;;;25.63;;
7263;SDS011;3673;52.480;13.348;2022-12-15T10:52:21;60.92;;;25.80;;
7263;SDS011;3673;52.480;13.348;2022-12-15T10:54:57;63.75;;;25.60;;
7263;SDS011;3673;52.480;13.348;2022-12-15T10:57:25;54.13;;;24.90;;
7263;SDS011;3673;52.480;13.348;2022-12-15T10:59:55;63.20;;;27.65;;
7263;SDS011;3673;52.480;13.348;2022-12-15T11:02:45;57.55;;;27.67;;
7263;SDS011;3673;52.480;13.348;2022-12-15T11:05:15;50.95;;;25.55;;
7263;SDS011;3673;52.480;13.348;2022-12-15T11:07:43;51.03;;;24.98;;
7263;SDS011;3673;52.480;13.348;2022-12-15T11:10:13;47.80;;;24.50;;
7263;SDS011;3673;52.480;13.348;2022-12-15T11:12:53;51.72;;;26.88;;
7263;SDS011;3673;52.480;13.348;2022-12-15T11:15:36;46.60;;;24.08;;
7263;SDS011;3673;52.480;13.348;2022-12-15T11:18:17;49.78;;;25.27;;
7263;SDS011;3673;52.480;13.348;2022-12-15T11:20:59;40.28;;;18.95;;
7263;SDS011;3673;52.480;13.348;2022-12-15T11:26:24;45.35;;;24.90;;
7263;SDS011;3673;52.480;13.348;2022-12-15T11:29:12;54.15;;;26.02;;
7263;SDS011;3673;52.480;13.348;2022-12-15T11:31:53;58.50;;;27.25;;
7263;SDS011;3673;52.480;13.348;2022-12-15T11:34:21;50.65;;;25.27;;
7263;SDS011;3673;52.480;13.348;2022-12-15T11:37:06;46.08;;;23.83;;
7263;SDS011;3673;52.480;13.348;2022-12-15T11:39:59;48.15;;;23.90;;
7263;SDS011;3673;52.480;13.348;2022-12-15T11:42:41;47.90;;;24.83;;
7263;SDS011;3673;52.480;13.348;2022-12-15T11:45:26;53.13;;;24.83;;
7263;SDS011;3673;52.480;13.348;2022-12-15T11:48:08;47.47;;;24.65;;
7263;SDS011;3673;52.480;13.348;2022-12-15T11:50:40;49.13;;;25.33;;
7263;SDS011;3673;52.480;13.348;2022-12-15T11:56:23;46.28;;;23.42;;
7263;SDS011;3673;52.480;13.348;2022-12-15T11:59:09;48.22;;;24.10;;
7263;SDS011;3673;52.480;13.348;2022-12-15T12:02:11;48.78;;;23.70;;
7263;SDS011;3673;52.480;13.348;2022-12-15T12:05:36;45.35;;;23.88;;
7263;SDS011;3673;52.480;13.348;2022-12-15T12:08:26;43.22;;;21.77;;
7263;SDS011;3673;52.480;13.348;2022-12-15T12:11:13;44.13;;;22.33;;
7263;SDS011;3673;52.480;13.348;2022-12-15T12:13:48;41.65;;;22.58;;
7263;SDS011;3673;52.480;13.348;2022-12-15T12:16:38;44.20;;;22.38;;
7263;SDS011;3673;52.480;13.348;2022-12-15T12:19:12;44.47;;;22.42;;
7263;SDS011;3673;52.480;13.348;2022-12-15T12:21:48;46.38;;;22.65;;
7263;SDS011;3673;52.480;13.348;2022-12-15T12:24:20;43.40;;;22.05;;
7263;SDS011;3673;52.480;13.348;2022-12-15T12:26:55;46.10;;;23.00;;
7263;SDS011;3673;52.480;13.348;2022-12-15T12:29:27;45.55;;;22.95;;
7263;SDS011;3673;52.480;13.348;2022-12-15T12:32:01;41.90;;;20.92;;
7263;SDS011;3673;52.480;13.348;2022-12-15T12:37:15;43.55;;;21.98;;
7263;SDS011;3673;52.480;13.348;2022-12-15T12:39:48;40.17;;;21.25;;
7263;SDS011;3673;52.480;13.348;2022-12-15T12:42:20;42.97;;;22.70;;
7263;SDS011;3673;52.480;13.348;2022-12-15T12:44:57;37.53;;;20.88;;
7263;SDS011;3673;52.480;13.348;2022-12-15T12:47:28;40.42;;;20.13;;
7263;SDS011;3673;52.480;13.348;2022-12-15T12:50:00;42.65;;;21.10;;
7263;SDS011;3673;52.480;13.348;2022-12-15T12:52:33;44.83;;;22.38;;
7263;SDS011;3673;52.480;13.348;2022-12-15T12:55:03;37.80;;;21.52;;
7263;SDS011;3673;52.480;13.348;2022-12-15T12:57:53;38.00;;;20.92;;
7263;SDS011;3673;52.480;13.348;2022-12-15T13:00:22;38.53;;;20.42;;
7263;SDS011;3673;52.480;13.348;2022-12-15T13:02:54;40.25;;;20.92;;
7263;SDS011;3673;52.480;13.348;2022-12-15T13:05:40;43.95;;;21.67;;
7263;SDS011;3673;52.480;13.348;2022-12-15T13:08:17;41.85;;;21.65;;
7263;SDS011;3673;52.480;13.348;2022-12-15T13:14:33;49.50;;;21.92;;
7263;SDS011;3673;52.480;13.348;2022-12-15T13:17:13;47.15;;;22.00;;
7263;SDS011;3673;52.480;13.348;2022-12-15T13:22:55;44.10;;;22.30;;
7263;SDS011;3673;52.480;13.348;2022-12-15T13:26:00;37.85;;;20.63;;
7263;SDS011;3673;52.480;13.348;2022-12-15T13:28:39;40.80;;;21.13;;
7263;SDS011;3673;52.480;13.348;2022-12-15T13:31:20;41.00;;;21.75;;
7263;SDS011;3673;52.480;13.348;2022-12-15T13:34:08;44.50;;;21.98;;
7263;SDS011;3673;52.480;13.348;2022-12-15T13:36:50;37.65;;;20.88;;
7263;SDS011;3673;52.480;13.348;2022-12-15T13:42:33;55.03;;;25.42;;
7263;SDS011;3673;52.480;13.348;2022-12-15T13:48:14;53.25;;;24.55;;
7263;SDS011;3673;52.480;13.348;2022-12-15T13:53:51;43.22;;;23.92;;
7263;SDS011;3673;52.480;13.348;2022-12-15T13:56:26;38.90;;;21.85;;
7263;SDS011;3673;52.480;13.348;2022-12-15T14:02:20;35.60;;;20.08;;
7263;SDS011;3673;52.480;13.348;2022-12-15T14:05:04;44.50;;;23.67;;
7263;SDS011;3673;52.480;13.348;2022-12-15T14:07:38;37.55;;;20.73;;
7263;SDS011;3673;52.480;13.348;2022-12-15T14:10:06;35.83;;;20.23;;
7263;SDS011;3673;52.480;13.348;2022-12-15T14:12:44;37.20;;;21.05;;
7263;SDS011;3673;52.480;13.348;2022-12-15T14:15:13;36.50;;;21.83;;
7263;SDS011;3673;52.480;13.348;2022-12-15T14:17:42;34.60;;;20.13;;
7263;SDS011;3673;52.480;13.348;2022-12-15T14:20:18;39.35;;;21.42;;
7263;SDS011;3673;52.480;13.348;2022-12-15T14:22:48;39.97;;;20.15;;
7263;SDS011;3673;52.480;13.348;2022-12-15T14:25:17;35.13;;;21.42;;
7263;SDS011;3673;52.480;13.348;2022-12-15T14:27:47;36.53;;;21.40;;
7263;SDS011;3673;52.480;13.348;2022-12-15T14:30:17;38.63;;;21.70;;
7263;SDS011;3673;52.480;13.348;2022-12-15T14:32:49;38.17;;;22.02;;
7263;SDS011;3673;52.480;13.348;2022-12-15T14:35:23;36.10;;;20.85;;
7263;SDS011;3673;52.480;13.348;2022-12-15T14:37:56;36.42;;;21.58;;
7263;SDS011;3673;52.480;13.348;2022-12-15T14:40:26;39.38;;;21.50;;
7263;SDS011;3673;52.480;13.348;2022-12-15T14:42:54;37.63;;;21.38;;
7263;SDS011;3673;52.480;13.348;2022-12-15T14:45:23;37.38;;;21.38;;
7263;SDS011;3673;52.480;13.348;2022-12-15T14:47:53;74.30;;;29.90;;
7263;SDS011;3673;52.480;13.348;2022-12-15T14:50:25;48.08;;;27.13;;
7263;SDS011;3673;52.480;13.348;2022-12-15T14:52:53;43.70;;;22.88;;
7263;SDS011;3673;52.480;13.348;2022-12-15T14:55:29;35.17;;;20.13;;
7263;SDS011;3673;52.480;13.348;2022-12-15T14:57:59;41.05;;;21.40;;
7263;SDS011;3673;52.480;13.348;2022-12-15T15:00:28;56.33;;;24.60;;
7263;SDS011;3673;52.480;13.348;2022-12-15T15:03:07;86.57;;;34.63;;
7263;SDS011;3673;52.480;13.348;2022-12-15T15:05:44;110.10;;;37.92;;
7263;SDS011;3673;52.480;13.348;2022-12-15T15:08:15;80.70;;;32.72;;
7263;SDS011;3673;52.480;13.348;2022-12-15T15:10:51;65.90;;;28.52;;
7263;SDS011;3673;52.480;13.348;2022-12-15T15:13:20;72.93;;;31.25;;
7263;SDS011;3673;52.480;13.348;2022-12-15T15:15:51;59.38;;;27.27;;
7263;SDS011;3673;52.480;13.348;2022-12-15T15:18:21;66.88;;;30.85;;
7263;SDS011;3673;52.480;13.348;2022-12-15T15:20:53;63.53;;;32.30;;
7263;SDS011;3673;52.480;13.348;2022-12-15T15:23:23;59.35;;;32.25;;
7263;SDS011;3673;52.480;13.348;2022-12-15T15:25:51;53.15;;;30.00;;
7263;SDS011;3673;52.480;13.348;2022-12-15T15:28:21;44.20;;;25.35;;
7263;SDS011;3673;52.480;13.348;2022-12-15T15:30:52;48.85;;;28.80;;
7263;SDS011;3673;52.480;13.348;2022-12-15T15:33:22;46.03;;;25.30;;
7263;SDS011;3673;52.480;13.348;2022-12-15T15:35:50;51.17;;;26.52;;
7263;SDS011;3673;52.480;13.348;2022-12-15T15:38:21;51.55;;;26.10;;
7263;SDS011;3673;52.480;13.348;2022-12-15T15:40:51;49.53;;;26.42;;
7263;SDS011;3673;52.480;13.348;2022-12-15T15:43:20;47.90;;;24.98;;
7263;SDS011;3673;52.480;13.348;2022-12-15T15:45:48;43.13;;;22.98;;
7263;SDS011;3673;52.480;13.348;2022-12-15T15:48:22;44.17;;;23.58;;
7263;SDS011;3673;52.480;13.348;2022-12-15T15:50:54;47.65;;;24.83;;
7263;SDS011;3673;52.480;13.348;2022-12-15T15:53:21;44.53;;;24.60;;